| time (UTC) | temp C | wind direction | speed KPH | gust KPH | rain 1hr cm | rain 24hr cm | rain mn cm | humidity % | barometer mb |
| 20260906220036 | 31 | 198 | 6.4 | 14.5 | 0.00 | 0.00 | 0.00 | 31 | 1001.3 |
| 20260906214528 | 31 | 124 | 3.2 | 16.1 | 0.00 | 0.00 | 0.00 | 32 | 1001.6 |
| 20260906213025 | 31 | 190 | 0.0 | 9.7 | 0.00 | 0.00 | 0.00 | 32 | 1001.7 |
| 20260906211523 | 31 | 130 | 6.4 | 12.9 | 0.00 | 0.00 | 0.00 | 32 | 1002.1 |
| 20260906210020 | 31 | 144 | 3.2 | 17.7 | 0.00 | 0.00 | 0.00 | 32 | 1002.4 |
| 20260906204517 | 31 | 133 | 0.0 | 11.3 | 0.00 | 0.00 | 0.00 | 32 | 1002.5 |
| 20260906203015 | 31 | 33 | 3.2 | 16.1 | 0.00 | 0.00 | 0.00 | 33 | 1002.8 |
| 20260906201512 | 30 | 128 | 0.0 | 8.0 | 0.00 | 0.00 | 0.00 | 34 | 1002.9 |
| 20260906200011 | 30 | 126 | 1.6 | 9.7 | 0.00 | 0.00 | 0.00 | 35 | 1003.3 |
| 20260906194516 | 30 | 54 | 0.0 | 12.9 | 0.00 | 0.00 | 0.00 | 36 | 1003.5 |
| 20260906193006 | 29 | 134 | 6.4 | 9.7 | 0.00 | 0.00 | 0.00 | 36 | 1003.7 |
| 20260906191501 | 29 | 39 | 0.0 | 9.7 | 0.00 | 0.00 | 0.00 | 37 | 1004.0 |
| 20260906190059 | 29 | 52 | 1.6 | 9.7 | 0.00 | 0.00 | 0.00 | 36 | 1004.2 |
| 20260906184559 | 28 | 17 | 3.2 | 12.9 | 0.00 | 0.00 | 0.00 | 38 | 1004.5 |
| 20260906183052 | 28 | 184 | 0.0 | 8.0 | 0.00 | 0.00 | 0.00 | 37 | 1004.9 |
| 20260906181604 | 27 | 185 | 0.0 | 6.4 | 0.00 | 0.00 | 0.00 | 41 | 1005.1 |
| 20260906180049 | 27 | 186 | 0.0 | 6.4 | 0.00 | 0.00 | 0.00 | 42 | 1005.4 |
| 20260906174547 | 27 | 186 | 0.0 | 8.0 | 0.00 | 0.00 | 0.00 | 41 | 1005.7 |
| 20260906173044 | 26 | 186 | 0.0 | 3.2 | 0.00 | 0.00 | 0.00 | 45 | 1006.0 |
| 20260906171543 | 26 | 181 | 0.0 | 4.8 | 0.00 | 0.00 | 0.00 | 48 | 1006.3 |
| 20260906170041 | 26 | 175 | 0.0 | 8.0 | 0.00 | 0.00 | 0.00 | 48 | 1006.5 |
| 20260906164538 | 25 | 175 | 0.0 | 4.8 | 0.00 | 0.00 | 0.00 | 53 | 1006.7 |
| 20260906163040 | 23 | 174 | 0.0 | 6.4 | 0.00 | 0.00 | 0.00 | 55 | 1006.6 |
| 20260906161533 | 23 | 174 | 1.6 | 6.4 | 0.00 | 0.00 | 0.00 | 57 | 1006.5 |
| 20260906160031 | 23 | 175 | 0.0 | 1.6 | 0.00 | 0.00 | 0.00 | 60 | 1006.5 |
| 20260906154529 | 22 | 175 | 0.0 | 4.8 | 0.00 | 0.00 | 0.00 | 63 | 1006.6 |
| 20260906153031 | 22 | 175 | 1.6 | 6.4 | 0.00 | 0.00 | 0.00 | 65 | 1006.7 |
| 20260906151528 | 21 | 176 | 0.0 | 4.8 | 0.00 | 0.00 | 0.00 | 69 | 1006.8 |
| 20260906150031 | 20 | 175 | 0.0 | 8.0 | 0.00 | 0.00 | 0.00 | 71 | 1006.8 |
| 20260906144527 | 20 | 175 | 1.6 | 4.8 | 0.00 | 0.00 | 0.00 | 74 | 1006.7 |
| 20260906143026 | 19 | 175 | 0.0 | 3.2 | 0.00 | 0.00 | 0.00 | 76 | 1006.8 |
| 20260906141525 | 18 | 175 | 0.0 | 0.0 | 0.00 | 0.00 | 0.00 | 79 | 1006.7 |
| 20260906140025 | 17 | 175 | 0.0 | 0.0 | 0.00 | 0.00 | 0.00 | 82 | 1006.8 |
| 20260906134524 | 17 | 175 | 0.0 | 0.0 | 0.00 | 0.00 | 0.00 | 83 | 1006.8 |
| 20260906133030 | 17 | 175 | 0.0 | 0.0 | 0.00 | 0.00 | 0.00 | 84 | 1006.7 |
| 20260906131521 | 16 | 175 | 0.0 | 0.0 | 0.00 | 0.00 | 0.00 | 84 | 1006.5 |
| 20260906130026 | 16 | 175 | 0.0 | 0.0 | 0.00 | 0.00 | 0.00 | 84 | 1006.3 |
| 20260906124520 | 16 | 175 | 0.0 | 0.0 | 0.00 | 0.00 | 0.00 | 83 | 1006.2 |
| 20260906123026 | 16 | 175 | 0.0 | 0.0 | 0.00 | 0.00 | 0.00 | 82 | 1006.3 |
| 20260906121516 | 17 | 175 | 0.0 | 0.0 | 0.00 | 0.00 | 0.00 | 81 | 1006.3 |
| 20260906120014 | 17 | 175 | 0.0 | 0.0 | 0.00 | 0.00 | 0.00 | 79 | 1006.4 |
| 20260906114533 | 17 | 175 | 0.0 | 4.8 | 0.00 | 0.00 | 0.00 | 77 | 1006.3 |
| 20260906113013 | 17 | 175 | 0.0 | 0.0 | 0.00 | 0.00 | 0.00 | 76 | 1006.3 |
| 20260906111518 | 17 | 175 | 0.0 | 0.0 | 0.00 | 0.00 | 0.00 | 74 | 1006.3 |
| 20260906110009 | 18 | 175 | 0.0 | 0.0 | 0.00 | 0.00 | 0.00 | 72 | 1006.2 |
| 20260906104509 | 18 | 175 | 0.0 | 0.0 | 0.00 | 0.00 | 0.00 | 72 | 1006.0 |
| 20260906103003 | 18 | 175 | 0.0 | 1.6 | 0.00 | 0.00 | 0.00 | 71 | 1005.8 |
| 20260906101502 | 18 | 175 | 0.0 | 0.0 | 0.00 | 0.00 | 0.00 | 68 | 1005.8 |
| 20260906100001 | 18 | 175 | 0.0 | 8.0 | 0.00 | 0.00 | 0.00 | 65 | 1005.9 |
| 20260906094559 | 18 | 175 | 0.0 | 3.2 | 0.00 | 0.00 | 0.00 | 60 | 1006.2 |
| 20260906093055 | 18 | 175 | 0.0 | 0.0 | 0.00 | 0.00 | 0.00 | 57 | 1006.0 |
| 20260906091553 | 19 | 175 | 0.0 | 0.0 | 0.00 | 0.00 | 0.00 | 56 | 1005.9 |
| 20260906090051 | 20 | 175 | 0.0 | 0.0 | 0.00 | 0.00 | 0.00 | 55 | 1005.7 |
| 20260906084551 | 19 | 175 | 0.0 | 0.0 | 0.00 | 0.00 | 0.00 | 57 | 1005.5 |
| 20260906083049 | 20 | 175 | 0.0 | 0.0 | 0.00 | 0.00 | 0.00 | 57 | 1005.5 |
| 20260906081552 | 20 | 175 | 0.0 | 0.0 | 0.00 | 0.00 | 0.00 | 56 | 1005.7 |
| 20260906080044 | 20 | 175 | 0.0 | 0.0 | 0.00 | 0.00 | 0.00 | 55 | 1005.6 |
| 20260906074545 | 20 | 175 | 0.0 | 0.0 | 0.00 | 0.00 | 0.00 | 53 | 1005.5 |
| 20260906073042 | 21 | 175 | 0.0 | 0.0 | 0.00 | 0.00 | 0.00 | 50 | 1005.2 |
| 20260906071534 | 22 | 175 | 0.0 | 0.0 | 0.00 | 0.00 | 0.00 | 48 | 1005.0 |
| 20260906070032 | 22 | 175 | 0.0 | 0.0 | 0.00 | 0.00 | 0.00 | 47 | 1004.8 |
| 20260906064531 | 22 | 175 | 0.0 | 0.0 | 0.00 | 0.00 | 0.00 | 47 | 1005.0 |
| 20260906063028 | 22 | 175 | 0.0 | 0.0 | 0.00 | 0.00 | 0.00 | 45 | 1005.0 |
| 20260906061525 | 23 | 175 | 0.0 | 0.0 | 0.00 | 0.00 | 0.00 | 44 | 1005.3 |
| 20260906060022 | 22 | 175 | 0.0 | 0.0 | 0.00 | 0.00 | 0.00 | 44 | 1005.5 |
| 20260906054524 | 23 | 175 | 0.0 | 0.0 | 0.00 | 0.00 | 0.00 | 43 | 1005.4 |
| 20260906053030 | 23 | 175 | 0.0 | 0.0 | 0.00 | 0.00 | 0.00 | 41 | 1005.5 |
| 20260906051521 | 23 | 175 | 0.0 | 0.0 | 0.00 | 0.00 | 0.00 | 40 | 1005.7 |
| 20260906050021 | 23 | 175 | 0.0 | 0.0 | 0.00 | 0.00 | 0.00 | 39 | 1005.7 |
| 20260906044520 | 24 | 175 | 0.0 | 0.0 | 0.00 | 0.00 | 0.00 | 38 | 1006.0 |
| 20260906043019 | 24 | 175 | 0.0 | 6.4 | 0.00 | 0.00 | 0.00 | 38 | 1005.7 |
| 20260906041525 | 23 | 182 | 1.6 | 11.3 | 0.00 | 0.00 | 0.00 | 39 | 1005.7 |
| 20260906040026 | 24 | 344 | 0.0 | 0.0 | 0.00 | 0.00 | 0.00 | 36 | 1004.7 |
| 20260906034516 | 24 | 344 | 0.0 | 3.2 | 0.00 | 0.00 | 0.00 | 37 | 1004.6 |
| 20260906033017 | 24 | 329 | 0.0 | 0.0 | 0.00 | 0.00 | 0.00 | 38 | 1004.6 |
| 20260906031531 | 25 | 329 | 0.0 | 0.0 | 0.00 | 0.00 | 0.00 | 36 | 1004.4 |
| 20260906030016 | 25 | 329 | 0.0 | 0.0 | 0.00 | 0.00 | 0.00 | 35 | 1004.1 |
| 20260906024514 | 26 | 329 | 0.0 | 0.0 | 0.00 | 0.00 | 0.00 | 33 | 1003.8 |
| 20260906023013 | 27 | 329 | 0.0 | 0.0 | 0.00 | 0.00 | 0.00 | 31 | 1003.7 |
| 20260906021513 | 28 | 329 | 0.0 | 1.6 | 0.00 | 0.00 | 0.00 | 29 | 1003.6 |
| 20260906020013 | 28 | 329 | 1.6 | 8.0 | 0.00 | 0.00 | 0.00 | 28 | 1003.4 |
| 20260906014517 | 28 | 331 | 0.0 | 8.0 | 0.00 | 0.00 | 0.00 | 27 | 1003.1 |
| 20260906013011 | 29 | 339 | 3.2 | 11.3 | 0.00 | 0.00 | 0.00 | 26 | 1002.8 |
| 20260906011511 | 30 | 311 | 6.4 | 17.7 | 0.00 | 0.00 | 0.00 | 24 | 1002.7 |
| 20260906010012 | 30 | 33 | 0.0 | 0.0 | 0.00 | 0.00 | 0.00 | 26 | 1002.5 |
| 20260906004511 | 31 | 33 | 0.0 | 0.0 | 0.00 | 0.00 | 0.00 | 24 | 1002.5 |
| 20260906003010 | 31 | 33 | 0.0 | 0.0 | 0.00 | 0.00 | 0.00 | 23 | 1002.5 |
| 20260906001509 | 31 | 33 | 0.0 | 6.4 | 0.00 | 0.00 | 0.00 | 21 | 1002.4 |
| 20260906000009 | 32 | 33 | 0.0 | 6.4 | 0.00 | 0.00 | 0.00 | 21 | 1002.3 |
| 20260905234508 | 32 | 36 | 1.6 | 9.7 | 0.00 | 0.00 | 0.00 | 21 | 1002.3 |
| 20260905233008 | 32 | 40 | 0.0 | 8.0 | 0.00 | 0.00 | 0.00 | 21 | 1002.3 |
| 20260905231508 | 32 | 40 | 0.0 | 1.6 | 0.00 | 0.00 | 0.00 | 20 | 1002.3 |
| 20260905230007 | 32 | 40 | 0.0 | 9.7 | 0.00 | 0.00 | 0.00 | 21 | 1002.2 |
| 20260905224507 | 32 | 50 | 0.0 | 4.8 | 0.00 | 0.00 | 0.00 | 21 | 1002.2 |
| 20260905223005 | 32 | 338 | 0.0 | 4.8 | 0.00 | 0.00 | 0.00 | 21 | 1002.2 |
| 20260905221504 | 32 | 338 | 0.0 | 11.3 | 0.00 | 0.00 | 0.00 | 21 | 1002.3 |